ENSG

Sogndal Airport

Sogndal, Norway
METAR ENSG 151220Z 08005KT 9999 FEW030 M08/M08 Q1025 RMK WIND 3806FT 10018KT
Observed Flight Rules
Dec-15 @ 12:20 UTC (4 hours ago) Visual Flight Rules
Wind Visibility Clouds
80° at 5 knots 10,000+ meters
  • Few at 3,000' AGL
Temperatures Readings
Current -8°C / 18°F
Dewpoint -8°C / 18°F
Humidity 100%
Altimeter 30.27" Hg
Pressure 1025 hPa
Elevation 497
METAR ENSG 151220Z 08005KT 9999 FEW030 M08/M08 Q1025 RMK WIND 3806FT 10018KT
Observed Flight Rules
Dec-15 @ 12:20 UTC
(4 hours ago)
VFR
Wind Visibility
80° at 5 knots 10,000+ meters
Clouds
  • Few at 3,000' AGL
Temperature Dewpoint
-8°C / 18°F -8°C / 18°F
Humidity Altimeter Pressure
100% 30.27" Hg 1025 hPa